Time;durP1;ratioP1;P1;durP2;ratioP2;P2;SDS_P1;SDS_P2;PMS_P1;PMS_P2;Temp;Humidity;BMP_temperature;BMP_pressure;BME280_temperature;BME280_humidity;BME280_pressure;Samples;Min_cycle;Max_cycle;Signal;HPM_P1;HPM_P2
2021/07/02 00:01:06;;;;;;;17.12;4.05;;;;;;;20.29;72.28;100119.34;1706721;82;21500;-39
2021/07/02 00:03:33;;;;;;;18.25;3.62;;;;;;;20.26;72.31;100111.18;1708290;83;21401;-40
2021/07/02 00:05:59;;;;;;;11.63;3.60;;;;;;;20.24;72.50;100111.30;1706901;83;20987;-41
2021/07/02 00:08:26;;;;;;;15.98;3.95;;;;;;;20.20;72.60;100108.95;1706933;84;20940;-40
2021/07/02 00:10:54;;;;;;;15.72;3.60;;;;;;;20.17;72.52;100105.22;1698018;84;22026;-40
2021/07/02 00:13:21;;;;;;;9.00;3.90;;;;;;;20.16;72.35;100104.84;1715831;83;21183;-40
2021/07/02 00:15:49;;;;;;;11.63;3.42;;;;;;;20.15;72.16;100105.30;1691558;83;20873;-40
2021/07/02 00:18:15;;;;;;;8.88;3.17;;;;;;;20.14;72.01;100094.91;1706065;83;21541;-41
2021/07/02 00:20:42;;;;;;;16.25;3.15;;;;;;;20.14;71.96;100095.73;1687667;83;21020;-40
2021/07/02 00:23:08;;;;;;;11.57;3.52;;;;;;;20.13;72.08;100094.05;1668745;84;21951;-40
2021/07/02 00:25:39;;;;;;;10.45;3.62;;;;;;;20.08;72.17;100087.80;1678723;83;20995;-40
2021/07/02 00:28:06;;;;;;;13.62;3.72;;;;;;;20.04;72.10;100083.66;1702031;83;21553;-40
2021/07/02 00:30:33;;;;;;;9.18;3.17;;;;;;;20.02;72.13;100088.66;1670906;83;21568;-40
2021/07/02 00:33:00;;;;;;;14.05;3.52;;;;;;;19.99;72.29;100090.17;1702455;83;20960;-40
2021/07/02 00:35:27;;;;;;;24.15;3.77;;;;;;;19.97;72.36;100089.42;1702227;83;20980;-39
2021/07/02 00:37:53;;;;;;;26.12;4.22;;;;;;;19.93;72.68;100091.39;1692879;83;21043;-40
2021/07/02 00:40:20;;;;;;;18.00;3.85;;;;;;;19.89;73.06;100097.27;1666352;83;21058;-40
2021/07/02 00:42:47;;;;;;;24.60;4.00;;;;;;;19.85;73.09;100096.27;1689233;83;20960;-39
2021/07/02 00:45:14;;;;;;;26.30;4.33;;;;;;;19.82;73.02;100101.23;1706939;83;21117;-40
2021/07/02 00:47:41;;;;;;;18.48;3.92;;;;;;;19.81;73.15;100103.00;1660406;83;21143;-41
2021/07/02 00:50:11;;;;;;;83.85;9.38;;;;;;;19.80;73.45;100105.25;1672262;83;20940;-39
2021/07/02 00:52:38;;;;;;;24.05;4.33;;;;;;;19.78;73.62;100116.81;1677408;83;21031;-40
2021/07/02 00:55:06;;;;;;;12.45;3.42;;;;;;;19.73;73.79;100112.32;1673606;83;21499;-41
2021/07/02 00:57:35;;;;;;;6.08;3.17;;;;;;;19.70;73.71;100102.84;1675937;84;21064;-39
2021/07/02 01:00:06;;;;;;;6.70;3.77;;;;;;;19.70;73.22;100106.78;1673582;83;21947;-40
2021/07/02 01:02:33;;;;;;;15.32;3.05;;;;;;;19.74;72.27;100095.63;1688237;83;20961;-40
2021/07/02 01:04:59;;;;;;;8.03;3.20;;;;;;;19.82;71.63;100102.06;1741404;80;20975;-40
2021/07/02 01:07:26;;;;;;;8.70;2.75;;;;;;;19.90;71.09;100099.44;1733287;80;21037;-40
2021/07/02 01:09:53;;;;;;;11.48;2.80;;;;;;;19.98;70.71;100095.05;1749701;80;20965;-40
2021/07/02 01:12:20;;;;;;;9.40;3.15;;;;;;;20.01;70.46;100096.17;1731327;80;21086;-40
2021/07/02 01:14:48;;;;;;;9.45;2.90;;;;;;;20.03;70.46;100092.48;1740014;80;21566;-40
2021/07/02 01:17:15;;;;;;;5.10;2.95;;;;;;;20.03;70.35;100087.23;1721420;81;20969;-40
2021/07/02 01:19:49;;;;;;;16.85;3.12;;;;;;;20.01;70.21;100088.28;1736557;80;20949;-40
2021/07/02 01:22:27;;;;;;;4.65;2.92;;;;;;;19.99;69.81;100085.74;1674805;82;20968;-40
2021/07/02 01:24:56;;;;;;;10.10;3.10;;;;;;;19.98;69.66;100085.38;1740788;80;21143;-40
2021/07/02 01:27:23;;;;;;;6.87;2.92;;;;;;;19.96;69.65;100082.00;1735178;80;20956;-40
2021/07/02 01:29:51;;;;;;;9.63;3.45;;;;;;;19.95;69.50;100084.26;1738126;80;21525;-40
2021/07/02 01:32:18;;;;;;;7.35;2.80;;;;;;;19.94;69.57;100088.66;1701918;82;21436;-40
2021/07/02 01:34:44;;;;;;;8.75;2.98;;;;;;;19.94;69.52;100081.27;1682692;83;21533;-41
2021/07/02 01:37:12;;;;;;;9.00;2.98;;;;;;;19.94;69.74;100083.89;1670629;83;20944;-41
2021/07/02 01:39:40;;;;;;;12.33;3.05;;;;;;;19.93;69.95;100077.78;1671654;83;20993;-41
2021/07/02 01:42:10;;;;;;;7.50;3.12;;;;;;;19.91;70.09;100074.41;1686469;83;21066;-42
2021/07/02 01:44:41;;;;;;;14.23;3.17;;;;;;;19.90;70.28;100074.01;1667255;83;20992;-41
2021/07/02 01:47:09;;;;;;;19.25;3.75;;;;;;;19.91;70.55;100077.52;1679090;84;20988;-42
2021/07/02 01:49:38;;;;;;;40.17;5.20;;;;;;;19.89;70.98;100080.69;1675892;83;21227;-42
2021/07/02 01:52:05;;;;;;;24.20;4.35;;;;;;;19.86;71.44;100079.58;1676505;83;21048;-41
2021/07/02 01:54:32;;;;;;;29.25;4.47;;;;;;;19.81;71.79;100088.55;1673079;83;21072;-41
2021/07/02 01:56:59;;;;;;;18.80;4.50;;;;;;;19.79;72.06;100090.44;1690028;83;21048;-42
2021/07/02 01:59:29;;;;;;;31.65;4.08;;;;;;;19.74;72.68;100088.58;1711802;81;20963;-42
2021/07/02 02:01:58;;;;;;;24.47;3.83;;;;;;;19.69;72.85;100086.72;1737376;80;21154;-42
2021/07/02 02:04:25;;;;;;;22.60;3.87;;;;;;;19.67;73.21;100085.48;1745943;80;20968;-41
2021/07/02 02:06:53;;;;;;;16.12;3.85;;;;;;;19.65;73.23;100086.05;1739190;80;20941;-41
2021/07/02 02:09:20;;;;;;;7.33;3.05;;;;;;;19.63;73.27;100086.62;1737289;80;21524;-41
2021/07/02 02:11:50;;;;;;;12.37;3.40;;;;;;;19.64;73.24;100082.23;1738106;81;20940;-41
2021/07/02 02:14:18;;;;;;;14.90;3.22;;;;;;;19.65;73.02;100073.42;1754704;80;21127;-40
2021/07/02 02:16:47;;;;;;;33.42;3.85;;;;;;;19.66;72.56;100077.73;1725163;80;20956;-41
2021/07/02 02:19:16;;;;;;;31.40;5.42;;;;;;;19.68;72.25;100083.72;1744178;80;21020;-42
2021/07/02 02:21:42;;;;;;;23.57;3.60;;;;;;;19.72;72.19;100083.89;1737671;81;21035;-42
2021/07/02 02:24:09;;;;;;;12.55;2.85;;;;;;;19.77;72.27;100085.76;1737374;80;21001;-42
2021/07/02 02:26:38;;;;;;;9.68;3.05;;;;;;;19.80;72.22;100086.88;1738163;80;21090;-42
2021/07/02 02:29:05;;;;;;;11.90;3.47;;;;;;;19.84;72.18;100082.77;1738453;80;21004;-41
2021/07/02 02:31:32;;;;;;;4.65;3.20;;;;;;;19.87;72.09;100083.88;1716790;81;21981;-41
2021/07/02 02:34:01;;;;;;;34.10;4.87;;;;;;;19.88;71.98;100085.08;1735719;80;20952;-41
2021/07/02 02:36:28;;;;;;;34.95;5.30;;;;;;;19.92;71.82;100079.20;1737550;80;21519;-41
2021/07/02 02:38:54;;;;;;;13.45;3.58;;;;;;;19.98;71.77;100081.92;1734492;80;21093;-41
2021/07/02 02:41:22;;;;;;;26.52;4.40;;;;;;;20.03;72.11;100079.84;1739870;80;21538;-42
2021/07/02 02:43:48;;;;;;;17.73;3.70;;;;;;;20.06;72.61;100080.95;1743029;80;20918;-41
2021/07/02 02:46:15;;;;;;;18.25;3.65;;;;;;;20.08;73.29;100078.61;1707303;82;20949;-41
2021/07/02 02:48:43;;;;;;;15.45;3.60;;;;;;;20.09;73.77;100075.04;1675829;83;21044;-41
2021/07/02 02:51:10;;;;;;;40.85;5.08;;;;;;;20.09;74.04;100081.61;1734413;80;21154;-41
2021/07/02 02:53:37;;;;;;;13.98;4.12;;;;;;;20.12;74.05;100077.92;1722368;81;21003;-41
2021/07/02 02:56:04;;;;;;;21.20;4.25;;;;;;;20.14;74.27;100079.15;1737403;80;20929;-41
2021/07/02 02:58:31;;;;;;;28.87;3.65;;;;;;;20.15;73.97;100076.89;1761033;80;20956;-41
2021/07/02 03:00:57;;;;;;;56.42;4.97;;;;;;;20.17;74.17;100083.71;1703627;82;21051;-41
2021/07/02 03:03:24;;;;;;;26.68;4.50;;;;;;;20.18;74.22;100075.38;1667749;83;21410;-41
2021/07/02 03:05:51;;;;;;;28.90;4.20;;;;;;;20.19;74.09;100077.88;1709386;83;21009;-41
2021/07/02 03:08:18;;;;;;;34.15;4.60;;;;;;;20.21;73.59;100084.36;1738223;80;20987;-41
2021/07/02 03:10:46;;;;;;;26.82;4.42;;;;;;;20.27;73.78;100089.70;1733747;80;21614;-41
2021/07/02 03:13:12;;;;;;;25.10;4.70;;;;;;;20.29;73.66;100095.20;1737014;80;20943;-41
2021/07/02 03:15:40;;;;;;;15.05;3.70;;;;;;;20.32;73.55;100103.38;1736190;80;21140;-41
2021/07/02 03:18:06;;;;;;;16.80;3.30;;;;;;;20.36;73.52;100101.77;1751248;80;21013;-42
2021/07/02 03:20:34;;;;;;;21.60;3.77;;;;;;;20.42;73.55;100100.99;1751252;80;21045;-42
2021/07/02 03:23:01;;;;;;;34.63;5.67;;;;;;;20.45;73.63;100098.16;1734030;80;21016;-41
2021/07/02 03:25:30;;;;;;;22.62;4.45;;;;;;;20.48;73.68;100103.22;1732907;80;20945;-41
2021/07/02 03:27:57;;;;;;;25.97;4.22;;;;;;;20.53;73.76;100111.63;1742976;80;21105;-40
2021/07/02 03:30:24;;;;;;;22.85;4.90;;;;;;;20.59;73.60;100115.20;1731913;80;21593;-42
2021/07/02 03:32:52;;;;;;;41.73;5.05;;;;;;;20.65;73.00;100104.72;1765056;80;21028;-41
2021/07/02 03:35:19;;;;;;;41.75;5.20;;;;;;;20.72;72.62;100102.53;1735675;80;21017;-41
2021/07/02 03:37:46;;;;;;;24.80;4.80;;;;;;;20.77;72.40;100100.44;1716128;80;21485;-40
2021/07/02 03:40:13;;;;;;;39.13;4.53;;;;;;;20.83;72.39;100099.22;1738121;80;21052;-40
2021/07/02 03:42:42;;;;;;;14.45;4.25;;;;;;;20.86;72.43;100105.13;1735921;80;20953;-40
2021/07/02 03:45:11;;;;;;;20.92;4.30;;;;;;;20.96;72.65;100104.00;1736049;80;21009;-40
2021/07/02 03:47:38;;;;;;;27.40;4.45;;;;;;;21.13;72.56;100106.83;1701220;82;21398;-40
2021/07/02 03:50:07;;;;;;;24.40;4.15;;;;;;;21.36;71.60;100106.54;1730705;80;21533;-41
2021/07/02 03:52:34;;;;;;;28.75;4.12;;;;;;;21.61;71.24;100113.22;1735001;80;21625;-41
2021/07/02 03:55:00;;;;;;;21.00;4.10;;;;;;;21.88;70.51;100120.14;1742207;80;21593;-41
2021/07/02 03:57:27;;;;;;;14.15;3.33;;;;;;;22.10;69.25;100103.61;1716300;81;20960;-40
2021/07/02 03:59:54;;;;;;;17.37;3.27;;;;;;;22.34;68.39;100094.86;1749425;80;21074;-41
2021/07/02 04:02:20;;;;;;;8.75;3.55;;;;;;;22.58;67.53;100099.30;1707284;82;22405;-41
2021/07/02 04:04:47;;;;;;;20.12;3.92;;;;;;;22.80;66.84;100099.83;1675577;83;21795;-41
2021/07/02 04:07:14;;;;;;;15.40;3.40;;;;;;;22.93;65.86;100094.00;1707566;82;21533;-41
2021/07/02 04:09:40;;;;;;;40.30;4.42;;;;;;;23.10;65.63;100097.97;1715380;82;21562;-42
2021/07/02 04:12:08;;;;;;;12.47;3.27;;;;;;;23.27;65.05;100094.55;1673968;83;21498;-41
2021/07/02 04:14:35;;;;;;;18.40;3.85;;;;;;;23.39;64.60;100093.58;1702000;81;20960;-40
2021/07/02 04:17:01;;;;;;;6.40;3.17;;;;;;;23.47;63.75;100098.26;1754411;80;21131;-40
2021/07/02 04:19:28;;;;;;;13.93;3.77;;;;;;;23.59;63.35;100104.38;1742468;80;21522;-40
2021/07/02 04:21:56;;;;;;;10.58;3.10;;;;;;;23.69;63.72;100100.53;1734558;81;20975;-40
2021/07/02 04:24:22;;;;;;;17.00;3.58;;;;;;;23.83;63.22;100103.38;1736644;80;21005;-40
2021/07/02 04:26:49;;;;;;;24.27;3.65;;;;;;;23.88;62.52;100113.09;1741208;80;21020;-40
2021/07/02 04:29:17;;;;;;;18.17;3.25;;;;;;;23.88;62.12;100112.27;1741976;80;21121;-40
2021/07/02 04:31:44;;;;;;;14.90;3.85;;;;;;;23.93;62.32;100108.77;1737190;80;21032;-41
2021/07/02 04:34:10;;;;;;;20.40;3.12;;;;;;;24.03;62.23;100103.12;1738462;80;21578;-40
2021/07/02 04:36:36;;;;;;;12.98;3.50;;;;;;;24.19;61.93;100105.85;1703490;82;21582;-40
2021/07/02 04:39:04;;;;;;;6.15;2.95;;;;;;;24.30;61.76;100115.05;1670050;83;21057;-40
2021/07/02 04:41:30;;;;;;;11.50;3.10;;;;;;;24.36;60.86;100102.64;1677203;83;21816;-40
2021/07/02 04:43:56;;;;;;;7.90;2.80;;;;;;;24.36;61.10;100099.99;1676384;83;20993;-40
2021/07/02 04:46:23;;;;;;;18.75;3.40;;;;;;;24.44;60.91;100100.69;1717454;82;20958;-40
2021/07/02 04:48:51;;;;;;;13.58;2.80;;;;;;;24.55;60.61;100105.09;1735746;80;21027;-41
2021/07/02 04:51:18;;;;;;;9.70;3.30;;;;;;;24.62;60.94;100110.72;1744863;80;20897;-41
2021/07/02 04:53:44;;;;;;;2.60;2.40;;;;;;;24.62;60.24;100110.22;1744806;80;21151;-41
2021/07/02 04:56:12;;;;;;;2.52;2.33;;;;;;;24.53;60.92;100101.73;1750190;80;20945;-41
2021/07/02 04:58:41;;;;;;;4.62;2.65;;;;;;;24.58;61.13;100104.83;1746417;80;21486;-41
2021/07/02 05:01:08;;;;;;;5.12;2.83;;;;;;;24.59;60.67;100108.33;1747501;80;21008;-41
2021/07/02 05:03:34;;;;;;;6.47;2.58;;;;;;;24.59;61.36;100097.25;1747967;80;20877;-41
2021/07/02 05:06:03;;;;;;;8.00;2.85;;;;;;;24.78;61.73;100097.92;1748626;80;22944;-42
2021/07/02 05:08:31;;;;;;;12.88;3.20;;;;;;;24.99;61.66;100098.87;1729929;80;21019;-41
2021/07/02 05:10:57;;;;;;;5.67;2.95;;;;;;;25.19;61.07;100101.98;1739914;80;20936;-41
2021/07/02 05:13:24;;;;;;;18.02;2.70;;;;;;;25.31;60.28;100098.75;1744455;80;21007;-41
2021/07/02 05:15:52;;;;;;;15.13;3.33;;;;;;;25.40;59.98;100102.42;1735827;80;20990;-41
2021/07/02 05:18:20;;;;;;;14.80;3.55;;;;;;;25.44;59.62;100095.88;1737112;80;21046;-41
2021/07/02 05:20:47;;;;;;;8.58;3.12;;;;;;;25.57;59.59;100096.14;1694188;82;20988;-41
2021/07/02 05:23:14;;;;;;;7.00;2.72;;;;;;;25.64;59.57;100097.27;1677993;84;21043;-41
2021/07/02 05:25:40;;;;;;;6.03;2.83;;;;;;;25.78;59.47;100099.55;1684181;84;20965;-42
2021/07/02 05:28:07;;;;;;;7.25;3.10;;;;;;;25.98;58.55;100094.30;1685896;83;20991;-42
2021/07/02 05:30:33;;;;;;;2.85;2.55;;;;;;;26.24;58.87;100093.79;1680577;83;21794;-42
2021/07/02 05:33:01;;;;;;;3.80;2.95;;;;;;;26.52;57.91;100099.22;1748580;80;20984;-42
2021/07/02 05:35:27;;;;;;;7.42;2.52;;;;;;;26.67;57.84;100092.52;1738234;80;20916;-42
2021/07/02 05:37:54;;;;;;;4.15;2.85;;;;;;;26.93;56.94;100101.22;1742431;80;21035;-40
2021/07/02 05:40:20;;;;;;;3.17;2.92;;;;;;;27.12;55.71;100103.45;1715175;80;20972;-40
2021/07/02 05:42:46;;;;;;;6.72;2.95;;;;;;;27.30;55.46;100102.70;1760737;80;21172;-40
2021/07/02 05:45:13;;;;;;;3.05;2.62;;;;;;;27.41;55.86;100102.53;1746092;80;20948;-41
2021/07/02 05:47:59;;;;;;;9.18;2.42;;;;;;;27.57;54.86;100101.06;1724551;80;20964;-41
2021/07/02 05:50:18;;;;;;;3.58;2.67;;;;;;;27.76;54.77;100103.62;1743314;80;21033;-40
2021/07/02 05:52:46;;;;;;;4.35;2.92;;;;;;;27.91;54.25;100099.10;1726361;81;21060;-40
2021/07/02 05:55:13;;;;;;;5.92;2.60;;;;;;;28.00;53.21;100094.23;1739293;81;21129;-40
2021/07/02 05:57:40;;;;;;;15.35;2.72;;;;;;;28.13;52.97;100090.34;1719876;82;20938;-40
2021/07/02 06:00:09;;;;;;;7.70;2.90;;;;;;;28.30;52.70;100088.73;1703008;83;21063;-40
2021/07/02 06:02:36;;;;;;;30.25;3.45;;;;;;;28.44;53.09;100094.00;1676275;84;20979;-41
2021/07/02 06:05:04;;;;;;;14.20;3.35;;;;;;;28.52;52.74;100096.20;1744057;81;21018;-41
2021/07/02 06:07:49;;;;;;;21.80;3.50;;;;;;;28.52;51.76;100092.72;1736022;80;21143;-42
2021/07/02 06:10:18;;;;;;;6.33;3.08;;;;;;;28.43;52.41;100094.98;1733084;81;21009;-41
2021/07/02 06:12:44;;;;;;;8.63;2.50;;;;;;;28.33;52.69;100094.55;1713584;82;20918;-42
2021/07/02 06:15:14;;;;;;;8.45;2.77;;;;;;;28.35;52.79;100095.23;1738474;81;20981;-42
2021/07/02 06:17:41;;;;;;;7.55;2.75;;;;;;;28.46;53.11;100095.49;1749771;81;20968;-42
2021/07/02 06:20:09;;;;;;;11.68;3.08;;;;;;;28.55;52.78;100093.73;1739544;81;21107;-41
2021/07/02 06:22:36;;;;;;;5.47;2.35;;;;;;;28.63;53.37;100090.30;1740111;81;21680;-42
2021/07/02 06:25:05;;;;;;;5.37;2.52;;;;;;;28.79;52.32;100089.09;1746447;81;20965;-41
2021/07/02 06:27:31;;;;;;;48.90;3.67;;;;;;;28.79;51.49;100084.28;1735245;81;21565;-42
2021/07/02 06:29:58;;;;;;;15.25;3.02;;;;;;;28.71;51.45;100082.88;1741648;80;20960;-42
2021/07/02 06:32:25;;;;;;;12.78;3.27;;;;;;;28.74;51.63;100081.23;1739609;81;21101;-42
2021/07/02 06:34:52;;;;;;;23.85;4.20;;;;;;;28.76;52.40;100089.38;1740616;81;21490;-41
2021/07/02 06:37:20;;;;;;;33.02;3.65;;;;;;;28.82;52.50;100083.97;1716872;81;20963;-42
2021/07/02 06:39:46;;;;;;;4.78;3.05;;;;;;;28.87;53.52;100094.16;1736919;80;21054;-42
2021/07/02 06:42:14;;;;;;;16.82;3.15;;;;;;;28.94;51.95;100091.20;1737402;81;20972;-41
2021/07/02 06:44:40;;;;;;;28.87;4.10;;;;;;;28.92;50.37;100090.52;1734215;80;21130;-42
2021/07/02 06:47:07;;;;;;;35.65;3.83;;;;;;;28.90;51.76;100089.84;1718659;81;21002;-44
2021/07/02 06:49:33;;;;;;;20.40;3.08;;;;;;;29.04;52.13;100088.42;1716890;82;21011;-41
2021/07/02 06:52:00;;;;;;;22.37;2.77;;;;;;;29.22;51.59;100095.86;1740890;81;21027;-42
2021/07/02 06:54:27;;;;;;;10.13;2.35;;;;;;;29.27;49.52;100098.53;1739983;81;21028;-42
2021/07/02 06:57:03;;;;;;;12.47;2.77;;;;;;;29.17;50.25;100101.31;1742061;81;21127;-43
2021/07/02 06:59:32;;;;;;;3.60;2.12;;;;;;;29.19;50.38;100096.66;1732710;80;20944;-41
2021/07/02 07:01:59;;;;;;;21.30;2.70;;;;;;;29.24;50.05;100092.53;1738233;80;20968;-42
2021/07/02 07:04:29;;;;;;;18.75;3.27;;;;;;;29.25;49.72;100096.86;1723765;81;20948;-42
2021/07/02 07:06:55;;;;;;;15.05;3.60;;;;;;;29.31;50.14;100092.73;1717499;81;21020;-42
2021/07/02 07:09:22;;;;;;;16.87;3.72;;;;;;;29.39;50.07;100092.77;1717006;81;21208;-42
2021/07/02 07:11:52;;;;;;;27.02;3.33;;;;;;;29.45;50.91;100088.66;1744305;80;20955;-41
2021/07/02 07:14:21;;;;;;;9.78;3.02;;;;;;;29.56;50.43;100088.02;1724726;81;20948;-42
2021/07/02 07:16:49;;;;;;;19.75;3.45;;;;;;;29.85;49.71;100084.09;1747034;81;20976;-42
2021/07/02 07:19:16;;;;;;;12.85;3.17;;;;;;;30.04;49.01;100089.64;1722627;81;21016;-42
2021/07/02 07:21:42;;;;;;;8.48;2.40;;;;;;;30.01;47.20;100086.83;1745602;81;21067;-42
2021/07/02 07:24:10;;;;;;;10.63;2.72;;;;;;;29.88;48.73;100087.75;1719051;82;20925;-41
2021/07/02 07:26:36;;;;;;;15.15;2.90;;;;;;;29.80;48.96;100085.90;1724203;80;21012;-42
2021/07/02 07:29:05;;;;;;;14.60;2.87;;;;;;;29.95;48.94;100094.13;1742190;81;20986;-42
2021/07/02 07:31:31;;;;;;;9.25;2.92;;;;;;;30.05;49.35;100089.49;1741511;80;20957;-42
2021/07/02 07:33:59;;;;;;;9.75;2.80;;;;;;;30.18;48.17;100091.67;1742609;80;21134;-42
2021/07/02 07:36:27;;;;;;;5.35;2.30;;;;;;;30.22;48.69;100094.85;1735011;82;21534;-42
2021/07/02 07:38:54;;;;;;;11.75;2.70;;;;;;;30.15;48.05;100091.16;1739166;80;20999;-42
2021/07/02 07:41:23;;;;;;;12.85;2.47;;;;;;;30.11;48.04;100086.16;1741789;80;20992;-42
2021/07/02 07:43:49;;;;;;;6.30;2.40;;;;;;;30.15;50.43;100083.15;1734610;81;21525;-42
2021/07/02 07:46:17;;;;;;;33.98;3.25;;;;;;;30.29;49.37;100078.98;1741727;81;21086;-41
2021/07/02 07:48:44;;;;;;;21.48;3.52;;;;;;;30.39;47.88;100076.48;1736521;81;20980;-42
2021/07/02 07:53:54;;;;;;;14.80;3.12;;;;;;;30.56;48.83;100080.48;1739134;82;20976;-42
2021/07/02 07:56:21;;;;;;;35.85;4.75;;;;;;;30.75;48.47;100073.16;1740833;80;20988;-42
2021/07/02 07:58:48;;;;;;;31.23;4.25;;;;;;;30.93;48.24;100075.61;1761450;80;21106;-42
2021/07/02 08:01:14;;;;;;;32.40;2.87;;;;;;;30.91;45.90;100086.45;1756921;80;20991;-42
2021/07/02 08:03:41;;;;;;;43.95;3.92;;;;;;;30.76;47.72;100086.32;1755879;80;20948;-42
2021/07/02 08:06:08;;;;;;;15.70;3.65;;;;;;;30.89;48.36;100085.79;1741515;82;20933;-41
2021/07/02 08:08:35;;;;;;;35.40;4.92;;;;;;;31.01;46.61;100078.25;1744025;82;20968;-41
2021/07/02 08:11:01;;;;;;;17.57;4.37;;;;;;;31.05;46.49;100081.42;1742939;82;21207;-42
2021/07/02 08:13:28;;;;;;;36.42;4.47;;;;;;;30.94;47.20;100091.45;1745584;80;20924;-41
2021/07/02 08:15:56;;;;;;;16.30;3.12;;;;;;;30.84;48.23;100088.66;1745006;80;21318;-42
2021/07/02 08:18:23;;;;;;;5.15;2.62;;;;;;;31.02;46.44;100083.92;1739014;80;21056;-42
2021/07/02 08:20:50;;;;;;;15.83;2.20;;;;;;;31.24;46.13;100091.75;1720569;82;20981;-42
2021/07/02 08:23:17;;;;;;;2.50;1.80;;;;;;;31.39;42.11;100086.99;1691714;83;21000;-42
2021/07/02 08:25:43;;;;;;;5.37;1.70;;;;;;;31.37;40.16;100095.20;1739112;82;20972;-42
2021/07/02 08:30:54;;;;;;;3.72;1.80;;;;;;;31.39;40.01;100086.99;1732073;80;20892;-41
2021/07/02 08:33:21;;;;;;;8.20;1.85;;;;;;;31.50;38.53;100086.62;1740452;82;20976;-42
2021/07/02 08:35:48;;;;;;;6.30;1.70;;;;;;;31.57;37.15;100087.25;1750219;80;21128;-41
2021/07/02 08:38:15;;;;;;;8.13;2.00;;;;;;;31.49;37.66;100083.62;1722445;83;21001;-41
2021/07/02 08:40:42;;;;;;;4.87;2.30;;;;;;;31.47;36.03;100090.14;1744330;82;20944;-42
2021/07/02 08:43:09;;;;;;;3.70;1.85;;;;;;;31.53;39.71;100088.94;1731452;82;21787;-42
2021/07/02 08:45:36;;;;;;;3.37;2.05;;;;;;;31.73;39.32;100083.16;1715257;82;20967;-42
2021/07/02 08:48:06;;;;;;;15.32;2.30;;;;;;;31.74;37.92;100076.80;1743543;82;21285;-42
2021/07/02 08:50:33;;;;;;;12.95;1.92;;;;;;;31.68;36.96;100077.48;1731782;81;20985;-42
2021/07/02 08:53:00;;;;;;;14.20;1.42;;;;;;;31.64;33.09;100070.82;1746795;80;21003;-42
2021/07/02 08:55:26;;;;;;;8.00;1.98;;;;;;;31.61;28.76;100075.19;1745974;80;21003;-42
2021/07/02 08:57:53;;;;;;;10.78;2.83;;;;;;;31.63;28.33;100071.83;1749486;82;20940;-41
2021/07/02 09:00:20;;;;;;;15.88;1.62;;;;;;;31.61;29.39;100067.17;1740627;82;21080;-41
2021/07/02 09:02:46;;;;;;;19.73;4.75;;;;;;;31.79;28.50;100070.92;1731281;82;20991;-42
2021/07/02 09:07:11;;;;;;;7.05;2.20;;;;;;;32.06;29.21;100071.41;1814557;78;22682;-41
2021/07/02 09:09:59;;;;;;;11.85;2.60;;;;;;;32.22;30.18;100071.81;1784725;80;21506;-41
2021/07/02 09:12:31;;;;;;;36.98;2.92;;;;;;;32.43;30.46;100061.77;1781526;80;21256;-42
2021/07/02 09:15:09;;;;;;;20.82;3.10;;;;;;;32.40;30.65;100070.17;1772564;80;20933;-41
2021/07/02 09:17:40;;;;;;;8.23;2.08;;;;;;;32.48;30.34;100067.94;1758519;80;20956;-42
2021/07/02 09:20:15;;;;;;;10.80;1.85;;;;;;;32.50;30.96;100061.36;1777764;79;20983;-42
2021/07/02 09:22:51;;;;;;;13.08;2.65;;;;;;;32.64;31.46;100061.06;1773637;80;20841;-41
2021/07/02 09:25:37;;;;;;;7.05;2.15;;;;;;;32.66;31.37;100058.21;1769693;80;21116;-42
2021/07/02 09:28:13;;;;;;;6.75;2.10;;;;;;;32.55;32.78;100068.86;1770186;80;20876;-43
2021/07/02 09:30:45;;;;;;;5.20;1.98;;;;;;;32.60;31.18;100057.61;1766029;80;20994;-42
2021/07/02 09:33:16;;;;;;;14.45;2.37;;;;;;;32.64;33.58;100058.91;1754662;81;20947;-40
2021/07/02 09:35:46;;;;;;;5.08;2.02;;;;;;;32.58;32.19;100052.42;1779223;80;20966;-42
2021/07/02 09:38:14;;;;;;;8.10;2.33;;;;;;;32.33;33.28;100059.84;1776315;79;21050;-41
2021/07/02 09:40:40;;;;;;;8.08;1.92;;;;;;;32.12;33.60;100054.66;1768431;80;20931;-42
2021/07/02 09:43:15;;;;;;;9.60;2.25;;;;;;;32.11;34.08;100053.81;1775894;80;20876;-42
2021/07/02 09:45:54;;;;;;;10.95;2.10;;;;;;;32.20;35.33;100051.05;1770298;80;20895;-42
2021/07/02 09:48:22;;;;;;;5.00;2.62;;;;;;;32.47;35.07;100048.34;1756485;80;20969;-42
2021/07/02 09:50:56;;;;;;;10.63;2.47;;;;;;;32.71;34.50;100050.94;1768046;80;21473;-41
2021/07/02 09:53:33;;;;;;;8.65;2.58;;;;;;;32.82;33.60;100051.84;1767508;80;20931;-42
2021/07/02 09:56:02;;;;;;;3.85;2.55;;;;;;;32.57;34.96;100048.58;1770840;80;20971;-42
2021/07/02 09:58:39;;;;;;;4.10;2.30;;;;;;;32.54;34.66;100050.61;1771575;80;20963;-42
2021/07/02 10:01:09;;;;;;;6.45;2.22;;;;;;;32.35;35.13;100050.63;1749897;80;20912;-42
2021/07/02 10:03:40;;;;;;;7.80;2.45;;;;;;;32.32;35.12;100037.61;1772757;80;21009;-42
2021/07/02 10:06:14;;;;;;;7.15;2.83;;;;;;;32.38;35.15;100036.06;1759976;80;20978;-42
2021/07/02 10:08:42;;;;;;;13.25;3.15;;;;;;;32.50;35.84;100032.44;1761582;80;21018;-42
2021/07/02 10:11:11;;;;;;;21.82;3.27;;;;;;;32.59;35.32;100027.80;1756306;80;20959;-42
2021/07/02 10:13:42;;;;;;;13.13;3.10;;;;;;;32.72;35.59;100028.53;1748418;81;21026;-41
2021/07/02 10:16:10;;;;;;;8.35;2.77;;;;;;;32.81;36.00;100027.41;1764883;79;21139;-43
2021/07/02 10:18:51;;;;;;;3.42;2.20;;;;;;;32.92;37.27;100028.30;1749698;81;21006;-42
2021/07/02 10:21:19;;;;;;;9.48;2.90;;;;;;;33.17;36.51;100029.33;1748315;81;21484;-42
2021/07/02 10:23:49;;;;;;;32.20;4.00;;;;;;;33.34;35.62;100023.77;1737768;81;20995;-41
2021/07/02 10:26:16;;;;;;;10.95;3.05;;;;;;;33.38;35.62;100030.41;1756214;80;20935;-41
2021/07/02 10:28:44;;;;;;;9.23;2.80;;;;;;;33.45;36.38;100025.97;1759290;81;21078;-42
2021/07/02 10:31:11;;;;;;;13.22;2.72;;;;;;;33.42;35.13;100030.37;1755983;80;20916;-42
2021/07/02 10:33:42;;;;;;;8.18;2.87;;;;;;;33.33;34.57;100032.83;1749747;80;21022;-42
2021/07/02 10:36:11;;;;;;;7.53;2.55;;;;;;;33.24;33.85;100028.08;1753578;80;21003;-42
2021/07/02 10:38:42;;;;;;;4.05;2.52;;;;;;;33.12;33.48;100031.75;1761960;80;20963;-42
2021/07/02 10:41:17;;;;;;;9.95;3.02;;;;;;;33.10;33.84;100026.59;1748763;81;21139;-42
2021/07/02 10:44:09;;;;;;;14.23;3.60;;;;;;;33.13;36.24;100023.21;1750082;81;22148;-42
2021/07/02 10:46:42;;;;;;;9.60;2.65;;;;;;;33.37;35.19;100028.74;1753797;81;20967;-42
2021/07/02 10:49:11;;;;;;;8.05;3.00;;;;;;;33.62;35.13;100025.25;1754938;81;20920;-43
2021/07/02 10:51:54;;;;;;;7.20;2.80;;;;;;;33.68;34.00;100024.47;1746799;81;20912;-43
2021/07/02 10:54:28;;;;;;;15.98;2.62;;;;;;;33.66;34.18;100021.16;1746960;81;21863;-42
2021/07/02 10:57:03;;;;;;;4.60;2.37;;;;;;;33.71;35.12;100016.53;1755756;80;20971;-42
2021/07/02 10:59:41;;;;;;;20.77;3.17;;;;;;;33.81;32.94;100021.09;1760998;81;20964;-42
2021/07/02 11:02:14;;;;;;;41.98;5.20;;;;;;;33.78;34.34;100013.42;1756500;80;20975;-42
2021/07/02 11:04:51;;;;;;;243.33;21.25;;;;;;;33.99;34.72;100009.60;1753211;81;21019;-41
2021/07/02 11:07:26;;;;;;;89.97;10.48;;;;;;;33.76;34.42;100010.60;1759752;80;21126;-41
2021/07/02 11:10:05;;;;;;;32.35;5.05;;;;;;;33.53;36.11;100012.95;1753113;80;21540;-42
2021/07/02 11:12:52;;;;;;;20.97;3.55;;;;;;;33.60;36.67;100013.03;1731506;82;20971;-41
2021/07/02 11:15:19;;;;;;;28.02;3.83;;;;;;;33.66;35.06;100011.77;1766763;80;20897;-42
2021/07/02 11:17:50;;;;;;;6.10;2.80;;;;;;;33.72;37.30;100008.80;1770883;80;20959;-40
2021/07/02 11:20:26;;;;;;;10.25;3.40;;;;;;;33.86;35.49;100004.92;1767553;80;21112;-41
2021/07/02 11:22:57;;;;;;;10.03;3.27;;;;;;;33.96;35.69;100005.44;1735499;81;21026;-41
2021/07/02 11:25:34;;;;;;;17.98;3.60;;;;;;;34.05;34.97;100000.77;1757954;80;20971;-41
2021/07/02 11:28:05;;;;;;;22.27;3.83;;;;;;;34.28;37.20;99997.86;1739307;81;20983;-42
2021/07/02 11:33:06;;;;;;;21.90;3.77;;;;;;;34.34;35.03;99994.38;1727661;82;21209;-41
2021/07/02 11:35:35;;;;;;;7.03;3.37;;;;;;;34.29;35.95;99994.15;1763920;80;21813;-41